sensor_id;sensor_type;location;lat;lon;timestamp;temperature;humidity
6518;DHT22;3292;48.944;9.240;2023-03-04T00:01:29;1.30;99.90
6518;DHT22;3292;48.944;9.240;2023-03-04T00:03:56;1.20;99.90
6518;DHT22;3292;48.944;9.240;2023-03-04T00:06:23;1.20;99.90
6518;DHT22;3292;48.944;9.240;2023-03-04T00:08:51;1.10;99.90
6518;DHT22;3292;48.944;9.240;2023-03-04T00:11:18;1.10;99.90
6518;DHT22;3292;48.944;9.240;2023-03-04T00:13:45;1.10;99.90
6518;DHT22;3292;48.944;9.240;2023-03-04T00:16:12;1.00;99.90
6518;DHT22;3292;48.944;9.240;2023-03-04T00:18:38;0.90;99.90
6518;DHT22;3292;48.944;9.240;2023-03-04T00:21:05;0.90;99.90
6518;DHT22;3292;48.944;9.240;2023-03-04T00:23:32;0.90;99.90
6518;DHT22;3292;48.944;9.240;2023-03-04T00:26:00;0.90;99.90
6518;DHT22;3292;48.944;9.240;2023-03-04T00:28:27;0.80;99.90
6518;DHT22;3292;48.944;9.240;2023-03-04T00:30:54;0.80;99.90
6518;DHT22;3292;48.944;9.240;2023-03-04T00:33:20;0.80;99.90
6518;DHT22;3292;48.944;9.240;2023-03-04T00:35:47;0.80;99.90
6518;DHT22;3292;48.944;9.240;2023-03-04T00:38:14;0.70;99.90
6518;DHT22;3292;48.944;9.240;2023-03-04T00:40:41;0.70;99.90
6518;DHT22;3292;48.944;9.240;2023-03-04T00:43:09;0.60;99.90
6518;DHT22;3292;48.944;9.240;2023-03-04T00:45:36;0.60;99.90
6518;DHT22;3292;48.944;9.240;2023-03-04T00:48:03;0.60;99.90
6518;DHT22;3292;48.944;9.240;2023-03-04T00:50:29;0.50;99.90
6518;DHT22;3292;48.944;9.240;2023-03-04T00:52:56;0.50;99.90
6518;DHT22;3292;48.944;9.240;2023-03-04T00:55:23;0.40;99.90
6518;DHT22;3292;48.944;9.240;2023-03-04T00:57:50;0.50;99.90
6518;DHT22;3292;48.944;9.240;2023-03-04T01:00:19;0.40;99.90
6518;DHT22;3292;48.944;9.240;2023-03-04T01:02:46;0.40;99.90
6518;DHT22;3292;48.944;9.240;2023-03-04T01:05:13;0.40;99.90
6518;DHT22;3292;48.944;9.240;2023-03-04T01:07:40;0.30;99.90
6518;DHT22;3292;48.944;9.240;2023-03-04T01:10:09;0.30;99.90
6518;DHT22;3292;48.944;9.240;2023-03-04T01:12:36;0.30;99.90
6518;DHT22;3292;48.944;9.240;2023-03-04T01:15:05;0.30;99.90
6518;DHT22;3292;48.944;9.240;2023-03-04T01:17:33;0.20;99.90
6518;DHT22;3292;48.944;9.240;2023-03-04T01:20:00;0.30;99.90
6518;DHT22;3292;48.944;9.240;2023-03-04T01:22:27;0.20;99.90
6518;DHT22;3292;48.944;9.240;2023-03-04T01:24:54;0.20;99.90
6518;DHT22;3292;48.944;9.240;2023-03-04T01:27:20;0.30;99.90
6518;DHT22;3292;48.944;9.240;2023-03-04T01:29:47;0.30;99.90
6518;DHT22;3292;48.944;9.240;2023-03-04T01:32:14;0.20;99.90
6518;DHT22;3292;48.944;9.240;2023-03-04T01:34:42;0.20;99.90
6518;DHT22;3292;48.944;9.240;2023-03-04T01:37:10;0.20;99.90
6518;DHT22;3292;48.944;9.240;2023-03-04T01:39:38;0.10;99.90
6518;DHT22;3292;48.944;9.240;2023-03-04T01:42:05;0.10;99.90
6518;DHT22;3292;48.944;9.240;2023-03-04T01:44:39;0.10;99.90
6518;DHT22;3292;48.944;9.240;2023-03-04T01:47:07;0.00;99.90
6518;DHT22;3292;48.944;9.240;2023-03-04T01:49:34;0.00;99.90
6518;DHT22;3292;48.944;9.240;2023-03-04T01:52:03;0.00;99.90
6518;DHT22;3292;48.944;9.240;2023-03-04T01:54:29;0.00;99.90
6518;DHT22;3292;48.944;9.240;2023-03-04T01:56:57;-0.10;99.90
6518;DHT22;3292;48.944;9.240;2023-03-04T01:59:26;-0.10;99.90
6518;DHT22;3292;48.944;9.240;2023-03-04T02:01:57;-0.10;99.90
6518;DHT22;3292;48.944;9.240;2023-03-04T02:04:26;-0.20;99.90
6518;DHT22;3292;48.944;9.240;2023-03-04T02:06:54;-0.20;99.90
6518;DHT22;3292;48.944;9.240;2023-03-04T02:09:23;-0.20;99.90
6518;DHT22;3292;48.944;9.240;2023-03-04T02:11:50;-0.20;99.90
6518;DHT22;3292;48.944;9.240;2023-03-04T02:14:18;-0.30;99.90
6518;DHT22;3292;48.944;9.240;2023-03-04T02:16:46;-0.30;99.90
6518;DHT22;3292;48.944;9.240;2023-03-04T02:19:18;-0.30;99.90
6518;DHT22;3292;48.944;9.240;2023-03-04T02:21:49;-0.30;99.90
6518;DHT22;3292;48.944;9.240;2023-03-04T02:24:21;-0.30;99.90
6518;DHT22;3292;48.944;9.240;2023-03-04T02:26:52;-0.40;99.90
6518;DHT22;3292;48.944;9.240;2023-03-04T02:29:19;-0.40;99.90
6518;DHT22;3292;48.944;9.240;2023-03-04T02:31:47;-0.40;99.90
6518;DHT22;3292;48.944;9.240;2023-03-04T02:34:16;-0.40;99.90
6518;DHT22;3292;48.944;9.240;2023-03-04T02:36:44;-0.50;99.90
6518;DHT22;3292;48.944;9.240;2023-03-04T02:39:20;-0.50;99.90
6518;DHT22;3292;48.944;9.240;2023-03-04T02:41:49;-0.50;99.90
6518;DHT22;3292;48.944;9.240;2023-03-04T02:44:20;-0.50;99.90
6518;DHT22;3292;48.944;9.240;2023-03-04T02:46:48;-0.50;99.90
6518;DHT22;3292;48.944;9.240;2023-03-04T02:49:15;-0.50;99.90
6518;DHT22;3292;48.944;9.240;2023-03-04T02:51:43;-0.50;99.90
6518;DHT22;3292;48.944;9.240;2023-03-04T02:54:16;-0.60;99.90
6518;DHT22;3292;48.944;9.240;2023-03-04T02:56:44;-0.60;99.90
6518;DHT22;3292;48.944;9.240;2023-03-04T02:59:12;-0.70;99.90
6518;DHT22;3292;48.944;9.240;2023-03-04T03:01:40;-0.70;99.90
6518;DHT22;3292;48.944;9.240;2023-03-04T03:04:07;-0.70;99.90
6518;DHT22;3292;48.944;9.240;2023-03-04T03:06:33;-0.70;99.90
6518;DHT22;3292;48.944;9.240;2023-03-04T03:09:00;-0.70;99.90
6518;DHT22;3292;48.944;9.240;2023-03-04T03:11:27;-0.70;99.90
6518;DHT22;3292;48.944;9.240;2023-03-04T03:13:54;-0.80;99.90
6518;DHT22;3292;48.944;9.240;2023-03-04T03:16:21;-0.70;99.90
6518;DHT22;3292;48.944;9.240;2023-03-04T03:18:49;-0.70;99.90
6518;DHT22;3292;48.944;9.240;2023-03-04T03:21:17;-0.80;99.90
6518;DHT22;3292;48.944;9.240;2023-03-04T03:23:44;-0.80;99.90
6518;DHT22;3292;48.944;9.240;2023-03-04T03:26:10;-0.80;99.90
6518;DHT22;3292;48.944;9.240;2023-03-04T03:28:37;-0.80;99.90
6518;DHT22;3292;48.944;9.240;2023-03-04T03:31:04;-0.80;99.90
6518;DHT22;3292;48.944;9.240;2023-03-04T03:33:32;-0.90;99.90
6518;DHT22;3292;48.944;9.240;2023-03-04T03:36:00;-0.90;99.90
6518;DHT22;3292;48.944;9.240;2023-03-04T03:38:27;-0.90;99.90
6518;DHT22;3292;48.944;9.240;2023-03-04T03:40:54;-1.00;99.90
6518;DHT22;3292;48.944;9.240;2023-03-04T03:43:21;-1.00;99.90
6518;DHT22;3292;48.944;9.240;2023-03-04T03:45:47;-1.00;99.90
6518;DHT22;3292;48.944;9.240;2023-03-04T03:48:16;-1.00;99.90
6518;DHT22;3292;48.944;9.240;2023-03-04T03:50:43;-1.00;99.90
6518;DHT22;3292;48.944;9.240;2023-03-04T03:53:12;-1.10;99.90
6518;DHT22;3292;48.944;9.240;2023-03-04T03:55:38;-1.10;99.90
6518;DHT22;3292;48.944;9.240;2023-03-04T03:58:05;-1.10;99.90
6518;DHT22;3292;48.944;9.240;2023-03-04T04:00:32;-1.20;99.90
6518;DHT22;3292;48.944;9.240;2023-03-04T04:02:59;-1.20;99.90
6518;DHT22;3292;48.944;9.240;2023-03-04T04:05:26;-1.20;99.90
6518;DHT22;3292;48.944;9.240;2023-03-04T04:07:53;-1.20;99.90
6518;DHT22;3292;48.944;9.240;2023-03-04T04:10:22;-1.20;99.90
6518;DHT22;3292;48.944;9.240;2023-03-04T04:12:48;-1.20;99.90
6518;DHT22;3292;48.944;9.240;2023-03-04T04:15:15;-1.20;99.90
6518;DHT22;3292;48.944;9.240;2023-03-04T04:17:42;-1.20;99.90
6518;DHT22;3292;48.944;9.240;2023-03-04T04:20:10;-1.20;99.90
6518;DHT22;3292;48.944;9.240;2023-03-04T04:22:37;-1.30;99.90
6518;DHT22;3292;48.944;9.240;2023-03-04T04:25:05;-1.30;99.90
6518;DHT22;3292;48.944;9.240;2023-03-04T04:27:34;-1.30;99.90
6518;DHT22;3292;48.944;9.240;2023-03-04T04:30:02;-1.40;99.90
6518;DHT22;3292;48.944;9.240;2023-03-04T04:32:29;-1.30;99.90
6518;DHT22;3292;48.944;9.240;2023-03-04T04:34:56;-1.40;99.90
6518;DHT22;3292;48.944;9.240;2023-03-04T04:37:23;-1.40;99.90
6518;DHT22;3292;48.944;9.240;2023-03-04T04:39:50;-1.40;99.90
6518;DHT22;3292;48.944;9.240;2023-03-04T04:42:16;-1.40;99.90
6518;DHT22;3292;48.944;9.240;2023-03-04T04:44:44;-1.50;99.90
6518;DHT22;3292;48.944;9.240;2023-03-04T04:47:11;-1.50;99.90
6518;DHT22;3292;48.944;9.240;2023-03-04T04:49:38;-1.50;99.90
6518;DHT22;3292;48.944;9.240;2023-03-04T04:52:05;-1.60;99.90
6518;DHT22;3292;48.944;9.240;2023-03-04T04:54:32;-1.60;99.90
6518;DHT22;3292;48.944;9.240;2023-03-04T04:56:59;-1.60;99.90
6518;DHT22;3292;48.944;9.240;2023-03-04T04:59:25;-1.60;99.90
6518;DHT22;3292;48.944;9.240;2023-03-04T05:01:54;-1.60;99.90
6518;DHT22;3292;48.944;9.240;2023-03-04T05:04:20;-1.60;99.90
6518;DHT22;3292;48.944;9.240;2023-03-04T05:06:47;-1.70;99.90
6518;DHT22;3292;48.944;9.240;2023-03-04T05:09:14;-1.70;99.90
6518;DHT22;3292;48.944;9.240;2023-03-04T05:11:41;-1.70;99.90
6518;DHT22;3292;48.944;9.240;2023-03-04T05:14:08;-1.80;99.90
6518;DHT22;3292;48.944;9.240;2023-03-04T05:16:35;-1.80;99.90
6518;DHT22;3292;48.944;9.240;2023-03-04T05:19:03;-1.80;99.90
6518;DHT22;3292;48.944;9.240;2023-03-04T05:21:30;-1.90;99.90
6518;DHT22;3292;48.944;9.240;2023-03-04T05:23:56;-1.90;99.90
6518;DHT22;3292;48.944;9.240;2023-03-04T05:26:23;-1.90;99.90
6518;DHT22;3292;48.944;9.240;2023-03-04T05:28:50;-1.90;99.90
6518;DHT22;3292;48.944;9.240;2023-03-04T05:31:17;-2.00;99.90
6518;DHT22;3292;48.944;9.240;2023-03-04T05:33:43;-2.00;99.90
6518;DHT22;3292;48.944;9.240;2023-03-04T05:36:12;-2.00;99.90
6518;DHT22;3292;48.944;9.240;2023-03-04T05:38:39;-2.00;99.90
6518;DHT22;3292;48.944;9.240;2023-03-04T05:41:06;-2.00;99.90
6518;DHT22;3292;48.944;9.240;2023-03-04T05:43:34;-2.00;99.90
6518;DHT22;3292;48.944;9.240;2023-03-04T05:46:02;-2.10;99.90
6518;DHT22;3292;48.944;9.240;2023-03-04T05:48:29;-2.10;99.90
6518;DHT22;3292;48.944;9.240;2023-03-04T05:50:58;-2.10;99.90
6518;DHT22;3292;48.944;9.240;2023-03-04T05:53:27;-2.10;99.90
6518;DHT22;3292;48.944;9.240;2023-03-04T05:55:54;-2.10;99.90
6518;DHT22;3292;48.944;9.240;2023-03-04T05:58:21;-2.10;99.90
6518;DHT22;3292;48.944;9.240;2023-03-04T06:00:49;-2.10;99.90
6518;DHT22;3292;48.944;9.240;2023-03-04T06:03:16;-2.10;99.90
6518;DHT22;3292;48.944;9.240;2023-03-04T06:05:44;-2.10;99.90
6518;DHT22;3292;48.944;9.240;2023-03-04T06:08:11;-2.10;99.90
6518;DHT22;3292;48.944;9.240;2023-03-04T06:10:40;-2.10;99.90
6518;DHT22;3292;48.944;9.240;2023-03-04T06:13:08;-2.10;99.90
6518;DHT22;3292;48.944;9.240;2023-03-04T06:15:34;-2.00;99.90
6518;DHT22;3292;48.944;9.240;2023-03-04T06:18:01;-2.00;99.90
6518;DHT22;3292;48.944;9.240;2023-03-04T06:20:28;-2.10;99.90
6518;DHT22;3292;48.944;9.240;2023-03-04T06:22:55;-2.00;99.90
6518;DHT22;3292;48.944;9.240;2023-03-04T06:25:23;-1.90;99.90
6518;DHT22;3292;48.944;9.240;2023-03-04T06:27:51;-1.90;99.90
6518;DHT22;3292;48.944;9.240;2023-03-04T06:30:18;-1.90;99.90
6518;DHT22;3292;48.944;9.240;2023-03-04T06:32:45;-1.80;99.90
6518;DHT22;3292;48.944;9.240;2023-03-04T06:35:13;-1.80;99.90
6518;DHT22;3292;48.944;9.240;2023-03-04T06:37:40;-1.80;99.90
6518;DHT22;3292;48.944;9.240;2023-03-04T06:40:09;-1.80;99.90
6518;DHT22;3292;48.944;9.240;2023-03-04T06:42:36;-1.80;99.90
6518;DHT22;3292;48.944;9.240;2023-03-04T06:45:07;-1.70;99.90
6518;DHT22;3292;48.944;9.240;2023-03-04T06:47:34;-1.70;99.90
6518;DHT22;3292;48.944;9.240;2023-03-04T06:50:00;-1.60;99.90
6518;DHT22;3292;48.944;9.240;2023-03-04T06:52:28;-1.70;99.90
6518;DHT22;3292;48.944;9.240;2023-03-04T06:54:55;-1.60;99.90
6518;DHT22;3292;48.944;9.240;2023-03-04T06:57:22;-1.50;99.90
6518;DHT22;3292;48.944;9.240;2023-03-04T06:59:48;-1.40;99.90
6518;DHT22;3292;48.944;9.240;2023-03-04T07:02:16;-1.30;99.90
6518;DHT22;3292;48.944;9.240;2023-03-04T07:04:43;-1.30;99.90
6518;DHT22;3292;48.944;9.240;2023-03-04T07:07:11;-1.30;99.90
6518;DHT22;3292;48.944;9.240;2023-03-04T07:09:38;-1.20;99.90
6518;DHT22;3292;48.944;9.240;2023-03-04T07:12:05;-1.20;99.90
6518;DHT22;3292;48.944;9.240;2023-03-04T07:14:31;-1.20;99.90
6518;DHT22;3292;48.944;9.240;2023-03-04T07:16:58;-1.10;99.90
6518;DHT22;3292;48.944;9.240;2023-03-04T07:19:26;-1.20;99.90
6518;DHT22;3292;48.944;9.240;2023-03-04T07:21:53;-1.30;99.90
6518;DHT22;3292;48.944;9.240;2023-03-04T07:24:20;-1.30;99.90
6518;DHT22;3292;48.944;9.240;2023-03-04T07:26:47;-1.30;99.90
6518;DHT22;3292;48.944;9.240;2023-03-04T07:29:14;-1.30;99.90
6518;DHT22;3292;48.944;9.240;2023-03-04T07:31:40;-1.20;99.90
6518;DHT22;3292;48.944;9.240;2023-03-04T07:34:11;-1.20;99.90
6518;DHT22;3292;48.944;9.240;2023-03-04T07:36:40;-1.10;99.90
6518;DHT22;3292;48.944;9.240;2023-03-04T07:39:08;-1.10;99.90
6518;DHT22;3292;48.944;9.240;2023-03-04T07:41:36;-1.00;99.90
6518;DHT22;3292;48.944;9.240;2023-03-04T07:44:03;-1.00;99.90
6518;DHT22;3292;48.944;9.240;2023-03-04T07:46:30;-0.90;99.90
6518;DHT22;3292;48.944;9.240;2023-03-04T07:48:57;-0.90;99.90
6518;DHT22;3292;48.944;9.240;2023-03-04T07:51:26;-0.80;99.90
6518;DHT22;3292;48.944;9.240;2023-03-04T07:53:56;-0.80;99.90
6518;DHT22;3292;48.944;9.240;2023-03-04T07:56:25;-0.70;99.90
6518;DHT22;3292;48.944;9.240;2023-03-04T07:58:53;-0.70;99.90
6518;DHT22;3292;48.944;9.240;2023-03-04T08:01:22;-0.60;99.90
6518;DHT22;3292;48.944;9.240;2023-03-04T08:03:49;-0.50;99.90
6518;DHT22;3292;48.944;9.240;2023-03-04T08:06:17;-0.50;99.90
6518;DHT22;3292;48.944;9.240;2023-03-04T08:08:45;-0.40;99.90
6518;DHT22;3292;48.944;9.240;2023-03-04T08:11:19;-0.40;99.90
6518;DHT22;3292;48.944;9.240;2023-03-04T08:13:47;-0.40;99.90
6518;DHT22;3292;48.944;9.240;2023-03-04T08:16:17;-0.40;99.90
6518;DHT22;3292;48.944;9.240;2023-03-04T08:18:46;-0.30;99.90
6518;DHT22;3292;48.944;9.240;2023-03-04T08:21:22;-0.30;99.90
6518;DHT22;3292;48.944;9.240;2023-03-04T08:23:52;-0.20;99.90
6518;DHT22;3292;48.944;9.240;2023-03-04T08:26:23;-0.30;99.90
6518;DHT22;3292;48.944;9.240;2023-03-04T08:28:51;-0.30;99.90
6518;DHT22;3292;48.944;9.240;2023-03-04T08:31:19;-0.20;99.90
6518;DHT22;3292;48.944;9.240;2023-03-04T08:33:46;-0.20;99.90
6518;DHT22;3292;48.944;9.240;2023-03-04T08:36:15;0.00;99.90
6518;DHT22;3292;48.944;9.240;2023-03-04T08:38:42;0.10;99.90
6518;DHT22;3292;48.944;9.240;2023-03-04T08:41:09;0.10;99.90
6518;DHT22;3292;48.944;9.240;2023-03-04T08:43:37;0.20;99.90
6518;DHT22;3292;48.944;9.240;2023-03-04T08:46:05;0.30;99.90
6518;DHT22;3292;48.944;9.240;2023-03-04T08:48:32;0.40;99.90
6518;DHT22;3292;48.944;9.240;2023-03-04T08:51:00;0.40;99.90
6518;DHT22;3292;48.944;9.240;2023-03-04T08:53:29;0.40;99.90
6518;DHT22;3292;48.944;9.240;2023-03-04T08:55:58;0.30;99.90
6518;DHT22;3292;48.944;9.240;2023-03-04T08:58:25;0.30;99.90
6518;DHT22;3292;48.944;9.240;2023-03-04T09:00:54;0.40;99.90
6518;DHT22;3292;48.944;9.240;2023-03-04T09:03:21;0.40;99.90
6518;DHT22;3292;48.944;9.240;2023-03-04T09:05:48;0.40;99.90
6518;DHT22;3292;48.944;9.240;2023-03-04T09:08:16;0.50;99.90
6518;DHT22;3292;48.944;9.240;2023-03-04T09:10:43;0.60;99.90
6518;DHT22;3292;48.944;9.240;2023-03-04T09:13:11;0.60;99.90
6518;DHT22;3292;48.944;9.240;2023-03-04T09:15:59;0.60;99.90
6518;DHT22;3292;48.944;9.240;2023-03-04T09:18:31;0.60;99.90
6518;DHT22;3292;48.944;9.240;2023-03-04T09:21:03;0.70;99.90
6518;DHT22;3292;48.944;9.240;2023-03-04T09:23:30;0.80;99.90
6518;DHT22;3292;48.944;9.240;2023-03-04T09:25:58;1.00;99.90
6518;DHT22;3292;48.944;9.240;2023-03-04T09:28:32;1.00;99.90
6518;DHT22;3292;48.944;9.240;2023-03-04T09:31:00;1.10;99.90
6518;DHT22;3292;48.944;9.240;2023-03-04T09:33:27;1.10;99.90
6518;DHT22;3292;48.944;9.240;2023-03-04T09:35:54;1.10;99.90
6518;DHT22;3292;48.944;9.240;2023-03-04T09:38:23;1.20;99.90
6518;DHT22;3292;48.944;9.240;2023-03-04T09:40:52;1.20;99.90
6518;DHT22;3292;48.944;9.240;2023-03-04T09:43:24;1.30;99.90
6518;DHT22;3292;48.944;9.240;2023-03-04T09:45:55;1.40;99.90
6518;DHT22;3292;48.944;9.240;2023-03-04T09:48:26;1.60;99.90
6518;DHT22;3292;48.944;9.240;2023-03-04T09:51:03;1.50;99.90
6518;DHT22;3292;48.944;9.240;2023-03-04T09:53:37;1.60;99.90
6518;DHT22;3292;48.944;9.240;2023-03-04T09:56:16;1.70;99.90
6518;DHT22;3292;48.944;9.240;2023-03-04T09:58:51;1.90;99.90
6518;DHT22;3292;48.944;9.240;2023-03-04T10:01:26;1.90;99.90
6518;DHT22;3292;48.944;9.240;2023-03-04T10:04:04;2.00;99.90
6518;DHT22;3292;48.944;9.240;2023-03-04T10:06:33;2.10;99.90
6518;DHT22;3292;48.944;9.240;2023-03-04T10:09:02;2.10;99.90
6518;DHT22;3292;48.944;9.240;2023-03-04T10:14:36;2.30;99.90
6518;DHT22;3292;48.944;9.240;2023-03-04T10:17:12;2.30;99.90
6518;DHT22;3292;48.944;9.240;2023-03-04T10:19:58;2.30;99.90
6518;DHT22;3292;48.944;9.240;2023-03-04T10:22:40;2.30;99.90
6518;DHT22;3292;48.944;9.240;2023-03-04T10:25:20;2.50;99.90
6518;DHT22;3292;48.944;9.240;2023-03-04T10:27:55;2.40;99.90
6518;DHT22;3292;48.944;9.240;2023-03-04T10:30:36;2.50;99.90
6518;DHT22;3292;48.944;9.240;2023-03-04T10:33:19;2.50;99.90
6518;DHT22;3292;48.944;9.240;2023-03-04T10:36:00;2.70;99.90
6518;DHT22;3292;48.944;9.240;2023-03-04T10:38:35;2.80;99.90
6518;DHT22;3292;48.944;9.240;2023-03-04T10:41:21;2.80;99.90
6518;DHT22;3292;48.944;9.240;2023-03-04T10:47:04;2.70;99.90
6518;DHT22;3292;48.944;9.240;2023-03-04T10:49:51;2.60;99.90
6518;DHT22;3292;48.944;9.240;2023-03-04T10:52:29;2.60;99.90
6518;DHT22;3292;48.944;9.240;2023-03-04T10:55:16;2.70;99.90
6518;DHT22;3292;48.944;9.240;2023-03-04T10:57:48;2.70;99.90
6518;DHT22;3292;48.944;9.240;2023-03-04T11:00:26;2.70;99.90
6518;DHT22;3292;48.944;9.240;2023-03-04T11:03:24;2.80;99.90
6518;DHT22;3292;48.944;9.240;2023-03-04T11:06:14;2.90;99.90
6518;DHT22;3292;48.944;9.240;2023-03-04T11:08:58;2.90;99.90
6518;DHT22;3292;48.944;9.240;2023-03-04T11:11:45;2.90;99.90
6518;DHT22;3292;48.944;9.240;2023-03-04T11:14:36;2.80;99.90
6518;DHT22;3292;48.944;9.240;2023-03-04T11:17:23;2.80;99.90
6518;DHT22;3292;48.944;9.240;2023-03-04T11:20:04;2.80;99.90
6518;DHT22;3292;48.944;9.240;2023-03-04T11:22:42;2.70;99.90
6518;DHT22;3292;48.944;9.240;2023-03-04T11:25:35;2.70;99.90
6518;DHT22;3292;48.944;9.240;2023-03-04T11:28:18;2.80;99.90
6518;DHT22;3292;48.944;9.240;2023-03-04T11:31:04;2.70;99.90
6518;DHT22;3292;48.944;9.240;2023-03-04T11:33:43;2.70;99.90
6518;DHT22;3292;48.944;9.240;2023-03-04T11:36:30;2.70;99.90
6518;DHT22;3292;48.944;9.240;2023-03-04T11:39:10;2.70;99.90
6518;DHT22;3292;48.944;9.240;2023-03-04T11:41:59;2.80;99.90
6518;DHT22;3292;48.944;9.240;2023-03-04T11:44:39;2.80;99.90
6518;DHT22;3292;48.944;9.240;2023-03-04T11:47:18;2.80;99.90
6518;DHT22;3292;48.944;9.240;2023-03-04T11:50:19;2.80;99.90
6518;DHT22;3292;48.944;9.240;2023-03-04T11:53:07;2.80;99.90
6518;DHT22;3292;48.944;9.240;2023-03-04T11:55:50;2.80;99.90
6518;DHT22;3292;48.944;9.240;2023-03-04T12:01:40;2.90;99.90
6518;DHT22;3292;48.944;9.240;2023-03-04T12:04:53;2.90;99.90
6518;DHT22;3292;48.944;9.240;2023-03-04T12:07:45;2.80;99.90
6518;DHT22;3292;48.944;9.240;2023-03-04T12:10:25;2.80;99.90
6518;DHT22;3292;48.944;9.240;2023-03-04T12:13:19;2.70;99.90
6518;DHT22;3292;48.944;9.240;2023-03-04T12:16:00;2.50;99.90
6518;DHT22;3292;48.944;9.240;2023-03-04T12:18:41;2.40;99.90
6518;DHT22;3292;48.944;9.240;2023-03-04T12:21:22;2.40;99.90
6518;DHT22;3292;48.944;9.240;2023-03-04T12:27:19;2.60;99.90
6518;DHT22;3292;48.944;9.240;2023-03-04T12:29:57;2.70;99.90
6518;DHT22;3292;48.944;9.240;2023-03-04T12:32:51;2.70;99.90
6518;DHT22;3292;48.944;9.240;2023-03-04T12:35:36;2.60;99.90
6518;DHT22;3292;48.944;9.240;2023-03-04T12:38:33;2.50;99.90
6518;DHT22;3292;48.944;9.240;2023-03-04T12:41:29;2.40;99.90
6518;DHT22;3292;48.944;9.240;2023-03-04T12:44:23;2.40;99.90
6518;DHT22;3292;48.944;9.240;2023-03-04T12:47:15;2.40;99.90
6518;DHT22;3292;48.944;9.240;2023-03-04T12:50:15;2.40;99.90
6518;DHT22;3292;48.944;9.240;2023-03-04T12:53:05;2.30;99.90
6518;DHT22;3292;48.944;9.240;2023-03-04T12:56:18;2.30;99.90
6518;DHT22;3292;48.944;9.240;2023-03-04T12:58:41;2.40;99.90
6518;DHT22;3292;48.944;9.240;2023-03-04T13:01:20;2.40;99.90
6518;DHT22;3292;48.944;9.240;2023-03-04T13:03:55;2.50;99.90
6518;DHT22;3292;48.944;9.240;2023-03-04T13:06:37;2.60;99.90
6518;DHT22;3292;48.944;9.240;2023-03-04T13:09:18;2.60;99.90
6518;DHT22;3292;48.944;9.240;2023-03-04T13:12:10;2.50;99.90
6518;DHT22;3292;48.944;9.240;2023-03-04T13:18:34;2.50;99.90
6518;DHT22;3292;48.944;9.240;2023-03-04T13:21:26;2.40;99.90
6518;DHT22;3292;48.944;9.240;2023-03-04T13:24:42;2.60;99.90
6518;DHT22;3292;48.944;9.240;2023-03-04T13:28:04;2.70;99.90
6518;DHT22;3292;48.944;9.240;2023-03-04T13:30:41;2.70;99.90
6518;DHT22;3292;48.944;9.240;2023-03-04T13:33:49;2.70;99.90
6518;DHT22;3292;48.944;9.240;2023-03-04T13:36:51;2.70;99.90
6518;DHT22;3292;48.944;9.240;2023-03-04T13:42:49;2.70;99.90
6518;DHT22;3292;48.944;9.240;2023-03-04T13:45:37;2.60;99.90
6518;DHT22;3292;48.944;9.240;2023-03-04T13:48:23;2.70;99.90
6518;DHT22;3292;48.944;9.240;2023-03-04T13:50:53;2.70;99.90
6518;DHT22;3292;48.944;9.240;2023-03-04T13:53:32;2.70;99.90
6518;DHT22;3292;48.944;9.240;2023-03-04T13:56:30;2.80;99.90
6518;DHT22;3292;48.944;9.240;2023-03-04T13:59:26;2.90;99.90
6518;DHT22;3292;48.944;9.240;2023-03-04T14:02:08;2.90;99.90
6518;DHT22;3292;48.944;9.240;2023-03-04T14:07:35;2.60;99.90
6518;DHT22;3292;48.944;9.240;2023-03-04T14:10:17;2.60;99.90
6518;DHT22;3292;48.944;9.240;2023-03-04T14:12:51;2.60;99.90
6518;DHT22;3292;48.944;9.240;2023-03-04T14:15:30;2.60;99.90
6518;DHT22;3292;48.944;9.240;2023-03-04T14:18:07;2.70;99.90
6518;DHT22;3292;48.944;9.240;2023-03-04T14:20:39;2.70;99.90
6518;DHT22;3292;48.944;9.240;2023-03-04T14:23:34;2.80;99.90
6518;DHT22;3292;48.944;9.240;2023-03-04T14:26:16;2.70;99.90
6518;DHT22;3292;48.944;9.240;2023-03-04T14:28:50;2.70;99.90
6518;DHT22;3292;48.944;9.240;2023-03-04T14:31:30;2.70;99.90
6518;DHT22;3292;48.944;9.240;2023-03-04T14:33:58;2.60;99.90
6518;DHT22;3292;48.944;9.240;2023-03-04T14:36:28;2.70;99.90
6518;DHT22;3292;48.944;9.240;2023-03-04T14:38:59;2.60;99.90
6518;DHT22;3292;48.944;9.240;2023-03-04T14:41:30;2.60;99.90
6518;DHT22;3292;48.944;9.240;2023-03-04T14:44:11;2.60;99.90
6518;DHT22;3292;48.944;9.240;2023-03-04T14:46:44;2.60;99.90
6518;DHT22;3292;48.944;9.240;2023-03-04T14:49:14;2.70;99.90
6518;DHT22;3292;48.944;9.240;2023-03-04T14:51:46;2.70;99.90
6518;DHT22;3292;48.944;9.240;2023-03-04T14:54:32;2.80;99.90
6518;DHT22;3292;48.944;9.240;2023-03-04T14:57:19;2.80;99.90
6518;DHT22;3292;48.944;9.240;2023-03-04T14:59:49;2.80;99.90
6518;DHT22;3292;48.944;9.240;2023-03-04T15:02:29;2.80;99.90
6518;DHT22;3292;48.944;9.240;2023-03-04T15:05:08;2.80;99.90
6518;DHT22;3292;48.944;9.240;2023-03-04T15:07:36;2.90;99.90
6518;DHT22;3292;48.944;9.240;2023-03-04T15:10:08;2.90;99.90
6518;DHT22;3292;48.944;9.240;2023-03-04T15:12:37;3.00;99.90
6518;DHT22;3292;48.944;9.240;2023-03-04T15:17:57;2.90;99.90
6518;DHT22;3292;48.944;9.240;2023-03-04T15:20:25;2.90;99.90
6518;DHT22;3292;48.944;9.240;2023-03-04T15:23:01;2.90;99.90
6518;DHT22;3292;48.944;9.240;2023-03-04T15:25:30;2.80;99.90
6518;DHT22;3292;48.944;9.240;2023-03-04T15:27:57;2.90;99.90
6518;DHT22;3292;48.944;9.240;2023-03-04T15:30:26;2.80;99.90
6518;DHT22;3292;48.944;9.240;2023-03-04T15:32:54;2.90;99.90
6518;DHT22;3292;48.944;9.240;2023-03-04T15:35:21;2.90;99.90
6518;DHT22;3292;48.944;9.240;2023-03-04T15:37:50;2.90;99.90
6518;DHT22;3292;48.944;9.240;2023-03-04T15:40:25;3.00;99.90
6518;DHT22;3292;48.944;9.240;2023-03-04T15:42:54;3.00;99.90
6518;DHT22;3292;48.944;9.240;2023-03-04T15:45:24;3.00;99.90
6518;DHT22;3292;48.944;9.240;2023-03-04T15:47:51;3.00;99.90
6518;DHT22;3292;48.944;9.240;2023-03-04T15:50:19;3.00;99.90
6518;DHT22;3292;48.944;9.240;2023-03-04T15:52:47;3.00;99.90
6518;DHT22;3292;48.944;9.240;2023-03-04T15:55:16;2.80;99.90
6518;DHT22;3292;48.944;9.240;2023-03-04T15:57:45;2.80;99.90
6518;DHT22;3292;48.944;9.240;2023-03-04T16:00:14;2.70;99.90
6518;DHT22;3292;48.944;9.240;2023-03-04T16:02:41;2.80;99.90
6518;DHT22;3292;48.944;9.240;2023-03-04T16:05:09;2.80;99.90
6518;DHT22;3292;48.944;9.240;2023-03-04T16:07:37;2.80;99.90
6518;DHT22;3292;48.944;9.240;2023-03-04T16:10:11;2.80;99.90
6518;DHT22;3292;48.944;9.240;2023-03-04T16:12:39;2.80;99.90
6518;DHT22;3292;48.944;9.240;2023-03-04T16:15:13;2.80;99.90
6518;DHT22;3292;48.944;9.240;2023-03-04T16:17:40;2.80;99.90
6518;DHT22;3292;48.944;9.240;2023-03-04T16:20:13;2.80;99.90
6518;DHT22;3292;48.944;9.240;2023-03-04T16:22:41;2.80;99.90
6518;DHT22;3292;48.944;9.240;2023-03-04T16:25:10;2.70;99.90
6518;DHT22;3292;48.944;9.240;2023-03-04T16:27:37;2.70;99.90
6518;DHT22;3292;48.944;9.240;2023-03-04T16:30:06;2.70;99.90
6518;DHT22;3292;48.944;9.240;2023-03-04T16:32:34;2.70;99.90
6518;DHT22;3292;48.944;9.240;2023-03-04T16:35:01;2.80;99.90
6518;DHT22;3292;48.944;9.240;2023-03-04T16:37:28;2.70;99.90
6518;DHT22;3292;48.944;9.240;2023-03-04T16:39:55;2.80;99.90
6518;DHT22;3292;48.944;9.240;2023-03-04T16:42:22;2.80;99.90
6518;DHT22;3292;48.944;9.240;2023-03-04T16:44:50;2.80;99.90
6518;DHT22;3292;48.944;9.240;2023-03-04T16:47:17;2.80;99.90
6518;DHT22;3292;48.944;9.240;2023-03-04T16:49:46;2.80;99.90
6518;DHT22;3292;48.944;9.240;2023-03-04T16:52:19;2.80;99.90
6518;DHT22;3292;48.944;9.240;2023-03-04T16:54:47;2.80;99.90
6518;DHT22;3292;48.944;9.240;2023-03-04T16:57:15;2.80;99.90
6518;DHT22;3292;48.944;9.240;2023-03-04T16:59:41;2.80;99.90
6518;DHT22;3292;48.944;9.240;2023-03-04T17:02:12;2.80;99.90
6518;DHT22;3292;48.944;9.240;2023-03-04T17:04:40;2.80;99.90
6518;DHT22;3292;48.944;9.240;2023-03-04T17:07:08;2.80;99.90
6518;DHT22;3292;48.944;9.240;2023-03-04T17:09:35;2.80;99.90